sensor_id;sensor_type;location;lat;lon;timestamp;temperature;humidity
5743;DHT22;2896;53.500;10.020;2023-02-16T00:00:51;-0.30;99.90
5743;DHT22;2896;53.500;10.020;2023-02-16T00:03:20;-0.40;99.90
5743;DHT22;2896;53.500;10.020;2023-02-16T00:05:47;-0.40;99.90
5743;DHT22;2896;53.500;10.020;2023-02-16T00:08:15;-0.40;99.90
5743;DHT22;2896;53.500;10.020;2023-02-16T00:10:42;-0.40;99.90
5743;DHT22;2896;53.500;10.020;2023-02-16T00:13:30;-0.40;99.90
5743;DHT22;2896;53.500;10.020;2023-02-16T00:16:14;-0.40;99.90
5743;DHT22;2896;53.500;10.020;2023-02-16T00:18:41;-0.50;99.90
5743;DHT22;2896;53.500;10.020;2023-02-16T00:21:08;-0.50;99.90
5743;DHT22;2896;53.500;10.020;2023-02-16T00:23:36;-0.30;99.90
5743;DHT22;2896;53.500;10.020;2023-02-16T00:26:03;-0.30;99.90
5743;DHT22;2896;53.500;10.020;2023-02-16T00:28:30;-0.50;99.90
5743;DHT22;2896;53.500;10.020;2023-02-16T00:30:57;-0.40;99.90
5743;DHT22;2896;53.500;10.020;2023-02-16T00:33:23;-0.50;99.90
5743;DHT22;2896;53.500;10.020;2023-02-16T00:35:50;-0.50;99.90
5743;DHT22;2896;53.500;10.020;2023-02-16T00:38:17;-0.50;99.90
5743;DHT22;2896;53.500;10.020;2023-02-16T00:40:45;-0.50;99.90
5743;DHT22;2896;53.500;10.020;2023-02-16T00:43:22;-0.60;99.90
5743;DHT22;2896;53.500;10.020;2023-02-16T00:45:49;-0.60;99.90
5743;DHT22;2896;53.500;10.020;2023-02-16T00:48:16;-0.60;99.90
5743;DHT22;2896;53.500;10.020;2023-02-16T00:50:43;-0.60;99.90
5743;DHT22;2896;53.500;10.020;2023-02-16T00:53:09;-0.50;99.90
5743;DHT22;2896;53.500;10.020;2023-02-16T00:55:37;-0.60;99.90
5743;DHT22;2896;53.500;10.020;2023-02-16T00:58:07;-0.60;99.90
5743;DHT22;2896;53.500;10.020;2023-02-16T01:00:39;-0.50;99.90
5743;DHT22;2896;53.500;10.020;2023-02-16T01:03:11;-0.60;99.90
5743;DHT22;2896;53.500;10.020;2023-02-16T01:05:38;-0.60;99.90
5743;DHT22;2896;53.500;10.020;2023-02-16T01:08:09;-0.70;99.90
5743;DHT22;2896;53.500;10.020;2023-02-16T01:10:59;-0.60;99.90
5743;DHT22;2896;53.500;10.020;2023-02-16T01:13:43;-0.60;99.90
5743;DHT22;2896;53.500;10.020;2023-02-16T01:16:13;-0.60;99.90
5743;DHT22;2896;53.500;10.020;2023-02-16T01:18:40;-0.70;99.90
5743;DHT22;2896;53.500;10.020;2023-02-16T01:21:07;-0.70;99.90
5743;DHT22;2896;53.500;10.020;2023-02-16T01:23:34;-0.70;99.90
5743;DHT22;2896;53.500;10.020;2023-02-16T01:26:01;-0.70;99.90
5743;DHT22;2896;53.500;10.020;2023-02-16T01:28:28;-0.70;99.90
5743;DHT22;2896;53.500;10.020;2023-02-16T01:30:56;-0.70;99.90
5743;DHT22;2896;53.500;10.020;2023-02-16T01:33:22;-0.70;99.90
5743;DHT22;2896;53.500;10.020;2023-02-16T01:35:50;-0.70;99.90
5743;DHT22;2896;53.500;10.020;2023-02-16T01:38:18;-0.80;99.90
5743;DHT22;2896;53.500;10.020;2023-02-16T01:40:50;-0.80;99.90
5743;DHT22;2896;53.500;10.020;2023-02-16T01:43:20;-0.70;99.90
5743;DHT22;2896;53.500;10.020;2023-02-16T01:45:52;-0.30;99.90
5743;DHT22;2896;53.500;10.020;2023-02-16T01:48:24;-0.80;99.90
5743;DHT22;2896;53.500;10.020;2023-02-16T01:50:55;-0.80;99.90
5743;DHT22;2896;53.500;10.020;2023-02-16T01:53:29;-0.90;99.90
5743;DHT22;2896;53.500;10.020;2023-02-16T01:56:00;-0.90;99.90
5743;DHT22;2896;53.500;10.020;2023-02-16T01:58:34;-0.90;99.90
5743;DHT22;2896;53.500;10.020;2023-02-16T02:04:28;-0.90;99.90
5743;DHT22;2896;53.500;10.020;2023-02-16T02:07:18;-0.90;99.90
5743;DHT22;2896;53.500;10.020;2023-02-16T02:09:56;-0.80;99.90
5743;DHT22;2896;53.500;10.020;2023-02-16T02:12:30;-0.80;99.90
5743;DHT22;2896;53.500;10.020;2023-02-16T02:14:58;-0.80;99.90
5743;DHT22;2896;53.500;10.020;2023-02-16T02:17:24;-0.80;99.90
5743;DHT22;2896;53.500;10.020;2023-02-16T02:20:00;-0.70;99.90
5743;DHT22;2896;53.500;10.020;2023-02-16T02:22:58;-0.70;99.90
5743;DHT22;2896;53.500;10.020;2023-02-16T02:26:18;-0.70;99.90
5743;DHT22;2896;53.500;10.020;2023-02-16T02:28:52;-0.70;99.90
5743;DHT22;2896;53.500;10.020;2023-02-16T02:31:31;-0.70;99.90
5743;DHT22;2896;53.500;10.020;2023-02-16T02:34:07;-0.70;99.90
5743;DHT22;2896;53.500;10.020;2023-02-16T02:36:40;-0.60;99.90
5743;DHT22;2896;53.500;10.020;2023-02-16T02:39:19;-0.60;99.90
5743;DHT22;2896;53.500;10.020;2023-02-16T02:41:56;-0.60;99.90
5743;DHT22;2896;53.500;10.020;2023-02-16T02:44:33;-0.60;99.90
5743;DHT22;2896;53.500;10.020;2023-02-16T02:47:02;-0.50;99.90
5743;DHT22;2896;53.500;10.020;2023-02-16T02:49:29;-0.60;99.90
5743;DHT22;2896;53.500;10.020;2023-02-16T02:51:56;-1.50;99.90
5743;DHT22;2896;53.500;10.020;2023-02-16T02:54:26;-0.60;99.90
5743;DHT22;2896;53.500;10.020;2023-02-16T02:57:16;-0.60;99.90
5743;DHT22;2896;53.500;10.020;2023-02-16T03:00:05;-0.60;99.90
5743;DHT22;2896;53.500;10.020;2023-02-16T03:02:54;-0.50;99.90
5743;DHT22;2896;53.500;10.020;2023-02-16T03:05:26;-0.60;99.90
5743;DHT22;2896;53.500;10.020;2023-02-16T03:07:55;-0.60;99.90
5743;DHT22;2896;53.500;10.020;2023-02-16T03:10:33;-0.70;99.90
5743;DHT22;2896;53.500;10.020;2023-02-16T03:13:22;-0.60;99.90
5743;DHT22;2896;53.500;10.020;2023-02-16T03:15:53;-0.70;99.90
5743;DHT22;2896;53.500;10.020;2023-02-16T03:18:23;-0.80;99.90
5743;DHT22;2896;53.500;10.020;2023-02-16T03:21:10;-0.70;99.90
5743;DHT22;2896;53.500;10.020;2023-02-16T03:23:55;-0.80;99.90
5743;DHT22;2896;53.500;10.020;2023-02-16T03:26:41;-0.80;99.90
5743;DHT22;2896;53.500;10.020;2023-02-16T03:29:26;-0.70;99.90
5743;DHT22;2896;53.500;10.020;2023-02-16T03:31:55;-0.90;99.90
5743;DHT22;2896;53.500;10.020;2023-02-16T03:34:23;-0.90;99.90
5743;DHT22;2896;53.500;10.020;2023-02-16T03:36:53;-0.80;99.90
5743;DHT22;2896;53.500;10.020;2023-02-16T03:39:23;-0.80;99.90
5743;DHT22;2896;53.500;10.020;2023-02-16T03:41:52;-0.80;99.90
5743;DHT22;2896;53.500;10.020;2023-02-16T03:44:20;-0.70;99.90
5743;DHT22;2896;53.500;10.020;2023-02-16T03:46:47;-0.70;99.90
5743;DHT22;2896;53.500;10.020;2023-02-16T03:49:16;-0.70;99.90
5743;DHT22;2896;53.500;10.020;2023-02-16T03:51:42;-0.80;99.90
5743;DHT22;2896;53.500;10.020;2023-02-16T03:54:09;-0.80;99.90
5743;DHT22;2896;53.500;10.020;2023-02-16T03:56:36;-0.80;99.90
5743;DHT22;2896;53.500;10.020;2023-02-16T03:59:03;-0.80;99.90
5743;DHT22;2896;53.500;10.020;2023-02-16T04:01:29;-0.90;99.90
5743;DHT22;2896;53.500;10.020;2023-02-16T04:03:56;-0.90;99.90
5743;DHT22;2896;53.500;10.020;2023-02-16T04:06:24;-0.70;99.90
5743;DHT22;2896;53.500;10.020;2023-02-16T04:08:50;-0.80;99.90
5743;DHT22;2896;53.500;10.020;2023-02-16T04:11:17;-0.80;99.90
5743;DHT22;2896;53.500;10.020;2023-02-16T04:14:01;-0.80;99.90
5743;DHT22;2896;53.500;10.020;2023-02-16T04:16:28;-0.80;99.90
5743;DHT22;2896;53.500;10.020;2023-02-16T04:18:55;-0.80;99.90
5743;DHT22;2896;53.500;10.020;2023-02-16T04:21:21;-0.80;99.90
5743;DHT22;2896;53.500;10.020;2023-02-16T04:23:49;-0.90;99.90
5743;DHT22;2896;53.500;10.020;2023-02-16T04:26:16;-0.90;99.90
5743;DHT22;2896;53.500;10.020;2023-02-16T04:28:42;-1.00;99.90
5743;DHT22;2896;53.500;10.020;2023-02-16T04:31:09;-0.80;99.90
5743;DHT22;2896;53.500;10.020;2023-02-16T04:33:36;-0.90;99.90
5743;DHT22;2896;53.500;10.020;2023-02-16T04:36:03;-0.90;99.90
5743;DHT22;2896;53.500;10.020;2023-02-16T04:38:29;-0.90;99.90
5743;DHT22;2896;53.500;10.020;2023-02-16T04:40:57;-0.80;99.90
5743;DHT22;2896;53.500;10.020;2023-02-16T04:43:24;-0.80;99.90
5743;DHT22;2896;53.500;10.020;2023-02-16T04:45:51;-0.90;99.90
5743;DHT22;2896;53.500;10.020;2023-02-16T04:48:17;-0.80;99.90
5743;DHT22;2896;53.500;10.020;2023-02-16T04:50:44;-0.80;99.90
5743;DHT22;2896;53.500;10.020;2023-02-16T04:53:10;-0.90;99.90
5743;DHT22;2896;53.500;10.020;2023-02-16T04:55:37;-0.90;99.90
5743;DHT22;2896;53.500;10.020;2023-02-16T04:58:05;-1.00;99.90
5743;DHT22;2896;53.500;10.020;2023-02-16T05:00:32;-0.90;99.90
5743;DHT22;2896;53.500;10.020;2023-02-16T05:02:59;-0.90;99.90
5743;DHT22;2896;53.500;10.020;2023-02-16T05:05:25;-1.00;99.90
5743;DHT22;2896;53.500;10.020;2023-02-16T05:07:52;-0.90;99.90
5743;DHT22;2896;53.500;10.020;2023-02-16T05:10:19;-1.00;99.90
5743;DHT22;2896;53.500;10.020;2023-02-16T05:12:46;-1.00;99.90
5743;DHT22;2896;53.500;10.020;2023-02-16T05:15:31;-0.90;99.90
5743;DHT22;2896;53.500;10.020;2023-02-16T05:17:58;-1.00;99.90
5743;DHT22;2896;53.500;10.020;2023-02-16T05:20:24;-0.90;99.90
5743;DHT22;2896;53.500;10.020;2023-02-16T05:23:11;-1.00;99.90
5743;DHT22;2896;53.500;10.020;2023-02-16T05:25:38;-0.90;99.90
5743;DHT22;2896;53.500;10.020;2023-02-16T05:28:04;-0.90;99.90
5743;DHT22;2896;53.500;10.020;2023-02-16T05:30:32;-1.00;99.90
5743;DHT22;2896;53.500;10.020;2023-02-16T05:32:59;-0.90;99.90
5743;DHT22;2896;53.500;10.020;2023-02-16T05:35:26;-1.00;99.90
5743;DHT22;2896;53.500;10.020;2023-02-16T05:37:52;-0.90;99.90
5743;DHT22;2896;53.500;10.020;2023-02-16T05:40:19;-0.80;99.90
5743;DHT22;2896;53.500;10.020;2023-02-16T05:42:46;-0.90;99.90
5743;DHT22;2896;53.500;10.020;2023-02-16T05:45:13;-0.90;99.90
5743;DHT22;2896;53.500;10.020;2023-02-16T05:47:41;-0.80;99.90
5743;DHT22;2896;53.500;10.020;2023-02-16T05:50:08;-0.80;99.90
5743;DHT22;2896;53.500;10.020;2023-02-16T05:52:35;-0.70;99.90
5743;DHT22;2896;53.500;10.020;2023-02-16T05:55:02;-0.70;99.90
5743;DHT22;2896;53.500;10.020;2023-02-16T05:57:29;-0.40;99.90
5743;DHT22;2896;53.500;10.020;2023-02-16T05:59:59;-0.30;99.90
5743;DHT22;2896;53.500;10.020;2023-02-16T06:02:26;0.10;99.90
5743;DHT22;2896;53.500;10.020;2023-02-16T06:04:54;0.50;99.90
5743;DHT22;2896;53.500;10.020;2023-02-16T06:07:20;0.70;99.90
5743;DHT22;2896;53.500;10.020;2023-02-16T06:09:47;0.80;99.90
5743;DHT22;2896;53.500;10.020;2023-02-16T06:12:13;1.10;99.90
5743;DHT22;2896;53.500;10.020;2023-02-16T06:14:40;1.40;99.90
5743;DHT22;2896;53.500;10.020;2023-02-16T06:17:07;1.90;99.90
5743;DHT22;2896;53.500;10.020;2023-02-16T06:19:33;2.00;99.90
5743;DHT22;2896;53.500;10.020;2023-02-16T06:22:01;2.20;99.90
5743;DHT22;2896;53.500;10.020;2023-02-16T06:24:28;2.20;99.90
5743;DHT22;2896;53.500;10.020;2023-02-16T06:26:54;2.30;99.90
5743;DHT22;2896;53.500;10.020;2023-02-16T06:29:21;2.40;99.90
5743;DHT22;2896;53.500;10.020;2023-02-16T06:31:48;2.40;99.90
5743;DHT22;2896;53.500;10.020;2023-02-16T06:34:14;2.40;99.90
5743;DHT22;2896;53.500;10.020;2023-02-16T06:36:41;2.30;99.90
5743;DHT22;2896;53.500;10.020;2023-02-16T06:39:09;2.30;99.90
5743;DHT22;2896;53.500;10.020;2023-02-16T06:41:36;2.40;99.90
5743;DHT22;2896;53.500;10.020;2023-02-16T06:44:07;2.50;99.90
5743;DHT22;2896;53.500;10.020;2023-02-16T06:46:34;2.50;99.90
5743;DHT22;2896;53.500;10.020;2023-02-16T06:49:01;2.40;99.90
5743;DHT22;2896;53.500;10.020;2023-02-16T06:51:28;2.20;99.90
5743;DHT22;2896;53.500;10.020;2023-02-16T06:53:55;2.10;99.90
5743;DHT22;2896;53.500;10.020;2023-02-16T06:56:22;2.10;99.90
5743;DHT22;2896;53.500;10.020;2023-02-16T06:58:50;2.10;99.90
5743;DHT22;2896;53.500;10.020;2023-02-16T07:01:16;2.10;99.90
5743;DHT22;2896;53.500;10.020;2023-02-16T07:03:47;2.10;99.90
5743;DHT22;2896;53.500;10.020;2023-02-16T07:06:16;2.00;99.90
5743;DHT22;2896;53.500;10.020;2023-02-16T07:08:42;2.00;99.90
5743;DHT22;2896;53.500;10.020;2023-02-16T07:11:09;2.30;99.90
5743;DHT22;2896;53.500;10.020;2023-02-16T07:13:37;2.50;99.90
5743;DHT22;2896;53.500;10.020;2023-02-16T07:16:05;2.60;99.90
5743;DHT22;2896;53.500;10.020;2023-02-16T07:18:32;2.60;99.90
5743;DHT22;2896;53.500;10.020;2023-02-16T07:20:59;2.60;99.90
5743;DHT22;2896;53.500;10.020;2023-02-16T07:23:26;2.80;99.90
5743;DHT22;2896;53.500;10.020;2023-02-16T07:25:52;2.80;99.90
5743;DHT22;2896;53.500;10.020;2023-02-16T07:28:19;2.80;99.90
5743;DHT22;2896;53.500;10.020;2023-02-16T07:30:47;2.90;99.90
5743;DHT22;2896;53.500;10.020;2023-02-16T07:33:14;2.90;99.90
5743;DHT22;2896;53.500;10.020;2023-02-16T07:35:41;3.00;99.90
5743;DHT22;2896;53.500;10.020;2023-02-16T07:38:08;3.00;99.90
5743;DHT22;2896;53.500;10.020;2023-02-16T07:40:34;3.10;99.90
5743;DHT22;2896;53.500;10.020;2023-02-16T07:43:04;3.20;99.90
5743;DHT22;2896;53.500;10.020;2023-02-16T07:45:31;3.20;99.90
5743;DHT22;2896;53.500;10.020;2023-02-16T07:48:00;3.20;99.90
5743;DHT22;2896;53.500;10.020;2023-02-16T07:50:26;3.30;99.90
5743;DHT22;2896;53.500;10.020;2023-02-16T07:52:53;3.30;99.90
5743;DHT22;2896;53.500;10.020;2023-02-16T07:55:20;3.40;99.90
5743;DHT22;2896;53.500;10.020;2023-02-16T07:57:46;3.50;99.90
5743;DHT22;2896;53.500;10.020;2023-02-16T08:00:14;3.60;99.90
5743;DHT22;2896;53.500;10.020;2023-02-16T08:02:41;3.60;99.90
5743;DHT22;2896;53.500;10.020;2023-02-16T08:05:09;3.60;99.90
5743;DHT22;2896;53.500;10.020;2023-02-16T08:07:35;3.70;99.90
5743;DHT22;2896;53.500;10.020;2023-02-16T08:10:05;3.80;99.90
5743;DHT22;2896;53.500;10.020;2023-02-16T08:12:31;3.90;99.90
5743;DHT22;2896;53.500;10.020;2023-02-16T08:14:58;4.10;99.90
5743;DHT22;2896;53.500;10.020;2023-02-16T08:17:25;4.10;99.90
5743;DHT22;2896;53.500;10.020;2023-02-16T08:19:51;4.20;99.90
5743;DHT22;2896;53.500;10.020;2023-02-16T08:22:19;4.30;99.90
5743;DHT22;2896;53.500;10.020;2023-02-16T08:24:46;4.40;99.90
5743;DHT22;2896;53.500;10.020;2023-02-16T08:27:13;4.40;99.90
5743;DHT22;2896;53.500;10.020;2023-02-16T08:29:39;4.40;99.90
5743;DHT22;2896;53.500;10.020;2023-02-16T08:32:09;2.80;99.90
5743;DHT22;2896;53.500;10.020;2023-02-16T08:34:37;4.60;99.90
5743;DHT22;2896;53.500;10.020;2023-02-16T08:37:04;4.70;99.90
5743;DHT22;2896;53.500;10.020;2023-02-16T08:39:32;4.90;99.90
5743;DHT22;2896;53.500;10.020;2023-02-16T08:42:00;5.00;99.90
5743;DHT22;2896;53.500;10.020;2023-02-16T08:44:27;5.00;99.90
5743;DHT22;2896;53.500;10.020;2023-02-16T08:46:56;5.00;99.90
5743;DHT22;2896;53.500;10.020;2023-02-16T08:49:25;5.10;99.90
5743;DHT22;2896;53.500;10.020;2023-02-16T08:51:53;5.20;99.90
5743;DHT22;2896;53.500;10.020;2023-02-16T08:54:23;5.20;99.90
5743;DHT22;2896;53.500;10.020;2023-02-16T08:56:53;5.30;99.90
5743;DHT22;2896;53.500;10.020;2023-02-16T08:59:21;5.40;99.90
5743;DHT22;2896;53.500;10.020;2023-02-16T09:01:48;6.00;99.90
5743;DHT22;2896;53.500;10.020;2023-02-16T09:04:16;5.70;99.90
5743;DHT22;2896;53.500;10.020;2023-02-16T09:06:44;5.70;99.90
5743;DHT22;2896;53.500;10.020;2023-02-16T09:09:13;5.70;99.90
5743;DHT22;2896;53.500;10.020;2023-02-16T09:11:39;5.90;99.90
5743;DHT22;2896;53.500;10.020;2023-02-16T09:14:07;5.90;99.90
5743;DHT22;2896;53.500;10.020;2023-02-16T09:16:35;5.90;99.90
5743;DHT22;2896;53.500;10.020;2023-02-16T09:19:04;6.00;99.90
5743;DHT22;2896;53.500;10.020;2023-02-16T09:21:31;6.10;99.90
5743;DHT22;2896;53.500;10.020;2023-02-16T09:24:01;6.20;99.90
5743;DHT22;2896;53.500;10.020;2023-02-16T09:26:31;6.40;99.90
5743;DHT22;2896;53.500;10.020;2023-02-16T09:28:58;6.50;99.90
5743;DHT22;2896;53.500;10.020;2023-02-16T09:31:29;6.50;99.90
5743;DHT22;2896;53.500;10.020;2023-02-16T09:34:00;6.60;99.90
5743;DHT22;2896;53.500;10.020;2023-02-16T09:36:27;6.70;99.90
5743;DHT22;2896;53.500;10.020;2023-02-16T09:38:54;6.80;99.90
5743;DHT22;2896;53.500;10.020;2023-02-16T09:41:33;6.80;99.90
5743;DHT22;2896;53.500;10.020;2023-02-16T09:44:05;6.90;99.90
5743;DHT22;2896;53.500;10.020;2023-02-16T09:46:36;7.00;99.90
5743;DHT22;2896;53.500;10.020;2023-02-16T09:49:04;7.00;99.90
5743;DHT22;2896;53.500;10.020;2023-02-16T09:51:34;7.10;99.90
5743;DHT22;2896;53.500;10.020;2023-02-16T09:54:11;5.10;99.90
5743;DHT22;2896;53.500;10.020;2023-02-16T09:56:43;7.20;1.00
5743;DHT22;2896;53.500;10.020;2023-02-16T09:59:16;7.20;1.00
5743;DHT22;2896;53.500;10.020;2023-02-16T10:01:57;7.30;1.00
5743;DHT22;2896;53.500;10.020;2023-02-16T10:04:31;7.40;99.90
5743;DHT22;2896;53.500;10.020;2023-02-16T10:07:13;7.50;99.90
5743;DHT22;2896;53.500;10.020;2023-02-16T10:09:44;7.60;1.00
5743;DHT22;2896;53.500;10.020;2023-02-16T10:12:15;7.70;1.00
5743;DHT22;2896;53.500;10.020;2023-02-16T10:14:47;7.80;99.90
5743;DHT22;2896;53.500;10.020;2023-02-16T10:17:22;7.90;99.90
5743;DHT22;2896;53.500;10.020;2023-02-16T10:19:54;8.00;1.00
5743;DHT22;2896;53.500;10.020;2023-02-16T10:22:27;8.10;1.00
5743;DHT22;2896;53.500;10.020;2023-02-16T10:24:59;8.20;99.90
5743;DHT22;2896;53.500;10.020;2023-02-16T10:27:31;8.30;99.90
5743;DHT22;2896;53.500;10.020;2023-02-16T10:30:00;8.20;99.90
5743;DHT22;2896;53.500;10.020;2023-02-16T10:32:34;8.10;99.90
5743;DHT22;2896;53.500;10.020;2023-02-16T10:35:12;8.00;1.00
5743;DHT22;2896;53.500;10.020;2023-02-16T10:37:53;8.00;1.00
5743;DHT22;2896;53.500;10.020;2023-02-16T10:40:29;8.00;16.60
5743;DHT22;2896;53.500;10.020;2023-02-16T10:43:04;7.90;1.00
5743;DHT22;2896;53.500;10.020;2023-02-16T10:45:34;7.90;1.00
5743;DHT22;2896;53.500;10.020;2023-02-16T10:48:03;7.90;1.00
5743;DHT22;2896;53.500;10.020;2023-02-16T10:50:32;8.00;1.00
5743;DHT22;2896;53.500;10.020;2023-02-16T10:53:07;8.00;1.00
5743;DHT22;2896;53.500;10.020;2023-02-16T10:55:36;8.10;1.00
5743;DHT22;2896;53.500;10.020;2023-02-16T10:58:03;8.10;1.00
5743;DHT22;2896;53.500;10.020;2023-02-16T11:00:43;8.00;1.00
5743;DHT22;2896;53.500;10.020;2023-02-16T11:03:12;8.00;1.00
5743;DHT22;2896;53.500;10.020;2023-02-16T11:05:40;8.10;1.00
5743;DHT22;2896;53.500;10.020;2023-02-16T11:08:08;8.10;1.00
5743;DHT22;2896;53.500;10.020;2023-02-16T11:10:41;8.10;1.00
5743;DHT22;2896;53.500;10.020;2023-02-16T11:13:23;8.20;1.00
5743;DHT22;2896;53.500;10.020;2023-02-16T11:15:52;8.20;1.00
5743;DHT22;2896;53.500;10.020;2023-02-16T11:18:31;8.10;1.00
5743;DHT22;2896;53.500;10.020;2023-02-16T11:21:00;8.30;1.00
5743;DHT22;2896;53.500;10.020;2023-02-16T11:23:29;8.30;1.00
5743;DHT22;2896;53.500;10.020;2023-02-16T11:26:00;8.30;1.00
5743;DHT22;2896;53.500;10.020;2023-02-16T11:28:30;8.30;1.00
5743;DHT22;2896;53.500;10.020;2023-02-16T11:31:00;8.30;1.00
5743;DHT22;2896;53.500;10.020;2023-02-16T11:33:29;8.40;1.00
5743;DHT22;2896;53.500;10.020;2023-02-16T11:35:59;8.40;1.00
5743;DHT22;2896;53.500;10.020;2023-02-16T11:38:31;8.40;1.00
5743;DHT22;2896;53.500;10.020;2023-02-16T11:41:00;8.40;1.00
5743;DHT22;2896;53.500;10.020;2023-02-16T11:43:30;8.40;1.00
5743;DHT22;2896;53.500;10.020;2023-02-16T11:46:00;8.40;1.00
5743;DHT22;2896;53.500;10.020;2023-02-16T11:48:31;8.50;1.00
5743;DHT22;2896;53.500;10.020;2023-02-16T11:51:00;8.40;1.00
5743;DHT22;2896;53.500;10.020;2023-02-16T11:53:29;8.50;1.00
5743;DHT22;2896;53.500;10.020;2023-02-16T11:56:17;8.50;1.00
5743;DHT22;2896;53.500;10.020;2023-02-16T11:59:02;8.60;1.00
5743;DHT22;2896;53.500;10.020;2023-02-16T12:01:39;8.50;1.00
5743;DHT22;2896;53.500;10.020;2023-02-16T12:04:17;8.60;1.00
5743;DHT22;2896;53.500;10.020;2023-02-16T12:06:53;8.50;1.00
5743;DHT22;2896;53.500;10.020;2023-02-16T12:09:31;8.40;1.00
5743;DHT22;2896;53.500;10.020;2023-02-16T12:12:08;8.40;1.00
5743;DHT22;2896;53.500;10.020;2023-02-16T12:14:48;8.50;1.00
5743;DHT22;2896;53.500;10.020;2023-02-16T12:17:27;8.30;1.00
5743;DHT22;2896;53.500;10.020;2023-02-16T12:20:08;8.30;1.00
5743;DHT22;2896;53.500;10.020;2023-02-16T12:22:39;8.30;1.00
5743;DHT22;2896;53.500;10.020;2023-02-16T12:25:24;8.40;1.00
5743;DHT22;2896;53.500;10.020;2023-02-16T12:27:56;8.50;1.00
5743;DHT22;2896;53.500;10.020;2023-02-16T12:30:35;8.50;1.00
5743;DHT22;2896;53.500;10.020;2023-02-16T12:33:14;8.50;1.00
5743;DHT22;2896;53.500;10.020;2023-02-16T12:36:17;8.40;1.00
5743;DHT22;2896;53.500;10.020;2023-02-16T12:38:54;8.50;1.00
5743;DHT22;2896;53.500;10.020;2023-02-16T12:41:29;8.40;1.00
5743;DHT22;2896;53.500;10.020;2023-02-16T12:44:04;8.50;1.00
5743;DHT22;2896;53.500;10.020;2023-02-16T12:46:35;8.50;1.00
5743;DHT22;2896;53.500;10.020;2023-02-16T12:49:10;8.50;1.00
5743;DHT22;2896;53.500;10.020;2023-02-16T12:51:44;8.50;1.00
5743;DHT22;2896;53.500;10.020;2023-02-16T12:54:15;8.50;1.00
5743;DHT22;2896;53.500;10.020;2023-02-16T12:56:45;8.50;1.00
5743;DHT22;2896;53.500;10.020;2023-02-16T12:59:17;8.50;1.00
5743;DHT22;2896;53.500;10.020;2023-02-16T13:01:48;8.60;1.00
5743;DHT22;2896;53.500;10.020;2023-02-16T13:04:20;8.60;1.00
5743;DHT22;2896;53.500;10.020;2023-02-16T13:06:56;8.60;1.00
5743;DHT22;2896;53.500;10.020;2023-02-16T13:09:35;8.50;1.00
5743;DHT22;2896;53.500;10.020;2023-02-16T13:12:09;8.50;1.00
5743;DHT22;2896;53.500;10.020;2023-02-16T13:14:40;8.50;1.00
5743;DHT22;2896;53.500;10.020;2023-02-16T13:17:11;8.60;1.00
5743;DHT22;2896;53.500;10.020;2023-02-16T13:19:40;8.50;1.00
5743;DHT22;2896;53.500;10.020;2023-02-16T13:22:27;8.60;1.00
5743;DHT22;2896;53.500;10.020;2023-02-16T13:25:08;8.60;1.00
5743;DHT22;2896;53.500;10.020;2023-02-16T13:27:44;8.60;1.00
5743;DHT22;2896;53.500;10.020;2023-02-16T13:30:32;8.60;1.00
5743;DHT22;2896;53.500;10.020;2023-02-16T13:33:12;8.60;1.00
5743;DHT22;2896;53.500;10.020;2023-02-16T13:36:05;8.70;1.00
5743;DHT22;2896;53.500;10.020;2023-02-16T13:38:55;8.80;1.00
5743;DHT22;2896;53.500;10.020;2023-02-16T13:41:33;8.90;1.00
5743;DHT22;2896;53.500;10.020;2023-02-16T13:44:08;8.90;1.00
5743;DHT22;2896;53.500;10.020;2023-02-16T13:46:40;9.10;1.00
5743;DHT22;2896;53.500;10.020;2023-02-16T13:49:28;9.10;1.00
5743;DHT22;2896;53.500;10.020;2023-02-16T13:51:55;9.30;1.00
5743;DHT22;2896;53.500;10.020;2023-02-16T13:54:27;9.30;1.00
5743;DHT22;2896;53.500;10.020;2023-02-16T13:56:54;9.40;1.00
5743;DHT22;2896;53.500;10.020;2023-02-16T14:02:55;9.10;1.00
5743;DHT22;2896;53.500;10.020;2023-02-16T14:05:34;9.10;1.00
5743;DHT22;2896;53.500;10.020;2023-02-16T14:08:23;9.20;1.00
5743;DHT22;2896;53.500;10.020;2023-02-16T14:11:06;9.20;1.00
5743;DHT22;2896;53.500;10.020;2023-02-16T14:13:44;9.10;1.00
5743;DHT22;2896;53.500;10.020;2023-02-16T14:16:25;9.10;1.00
5743;DHT22;2896;53.500;10.020;2023-02-16T14:18:55;9.10;1.00
5743;DHT22;2896;53.500;10.020;2023-02-16T14:21:29;9.20;1.00
5743;DHT22;2896;53.500;10.020;2023-02-16T14:23:59;9.20;1.00
5743;DHT22;2896;53.500;10.020;2023-02-16T14:26:27;9.20;1.00
5743;DHT22;2896;53.500;10.020;2023-02-16T14:29:05;9.20;1.00
5743;DHT22;2896;53.500;10.020;2023-02-16T14:31:40;9.20;1.00
5743;DHT22;2896;53.500;10.020;2023-02-16T14:34:16;9.10;1.00
5743;DHT22;2896;53.500;10.020;2023-02-16T14:37:07;9.10;1.00
5743;DHT22;2896;53.500;10.020;2023-02-16T14:39:35;9.00;1.00
5743;DHT22;2896;53.500;10.020;2023-02-16T14:42:07;9.00;1.00
5743;DHT22;2896;53.500;10.020;2023-02-16T14:44:51;8.90;1.00
5743;DHT22;2896;53.500;10.020;2023-02-16T14:47:27;8.90;1.00
5743;DHT22;2896;53.500;10.020;2023-02-16T14:50:21;8.90;1.00
5743;DHT22;2896;53.500;10.020;2023-02-16T14:53:16;8.80;1.00
5743;DHT22;2896;53.500;10.020;2023-02-16T14:56:06;8.80;1.00
5743;DHT22;2896;53.500;10.020;2023-02-16T14:58:44;8.70;1.00
5743;DHT22;2896;53.500;10.020;2023-02-16T15:01:14;8.70;1.00
5743;DHT22;2896;53.500;10.020;2023-02-16T15:03:43;8.70;1.00
5743;DHT22;2896;53.500;10.020;2023-02-16T15:06:22;8.70;1.00
5743;DHT22;2896;53.500;10.020;2023-02-16T15:08:54;8.70;1.00
5743;DHT22;2896;53.500;10.020;2023-02-16T15:11:27;8.70;1.00
5743;DHT22;2896;53.500;10.020;2023-02-16T15:14:01;8.60;1.00
5743;DHT22;2896;53.500;10.020;2023-02-16T15:16:30;8.70;1.00
5743;DHT22;2896;53.500;10.020;2023-02-16T15:18:58;8.60;1.00
5743;DHT22;2896;53.500;10.020;2023-02-16T15:21:28;8.60;1.00
5743;DHT22;2896;53.500;10.020;2023-02-16T15:23:56;8.60;1.00
5743;DHT22;2896;53.500;10.020;2023-02-16T15:26:25;8.50;1.00
5743;DHT22;2896;53.500;10.020;2023-02-16T15:28:53;8.50;1.00
5743;DHT22;2896;53.500;10.020;2023-02-16T15:31:26;8.50;1.00
5743;DHT22;2896;53.500;10.020;2023-02-16T15:33:56;8.50;1.00
5743;DHT22;2896;53.500;10.020;2023-02-16T15:36:30;8.40;1.00
5743;DHT22;2896;53.500;10.020;2023-02-16T15:39:00;8.40;1.00
5743;DHT22;2896;53.500;10.020;2023-02-16T15:41:29;8.40;1.00
5743;DHT22;2896;53.500;10.020;2023-02-16T15:43:57;8.30;1.00
5743;DHT22;2896;53.500;10.020;2023-02-16T15:46:29;8.30;42.60
5743;DHT22;2896;53.500;10.020;2023-02-16T15:48:56;8.30;99.90
5743;DHT22;2896;53.500;10.020;2023-02-16T15:51:27;8.30;99.90
5743;DHT22;2896;53.500;10.020;2023-02-16T15:53:58;8.20;99.90
5743;DHT22;2896;53.500;10.020;2023-02-16T15:56:35;8.10;99.90
5743;DHT22;2896;53.500;10.020;2023-02-16T15:59:12;8.10;99.90
5743;DHT22;2896;53.500;10.020;2023-02-16T16:01:43;8.10;99.90
5743;DHT22;2896;53.500;10.020;2023-02-16T16:04:16;8.00;1.00
5743;DHT22;2896;53.500;10.020;2023-02-16T16:06:44;8.00;1.00
5743;DHT22;2896;53.500;10.020;2023-02-16T16:09:19;8.00;1.00
5743;DHT22;2896;53.500;10.020;2023-02-16T16:11:48;7.90;1.00
5743;DHT22;2896;53.500;10.020;2023-02-16T16:14:16;7.90;1.00
5743;DHT22;2896;53.500;10.020;2023-02-16T16:16:44;7.80;81.20
5743;DHT22;2896;53.500;10.020;2023-02-16T16:19:14;7.80;99.90
5743;DHT22;2896;53.500;10.020;2023-02-16T16:21:47;7.80;1.00
5743;DHT22;2896;53.500;10.020;2023-02-16T16:24:27;7.90;25.00
5743;DHT22;2896;53.500;10.020;2023-02-16T16:27:00;7.80;99.90
5743;DHT22;2896;53.500;10.020;2023-02-16T16:29:31;7.70;1.00
5743;DHT22;2896;53.500;10.020;2023-02-16T16:32:00;7.80;99.90
5743;DHT22;2896;53.500;10.020;2023-02-16T16:34:35;7.80;99.90
5743;DHT22;2896;53.500;10.020;2023-02-16T16:37:02;7.70;1.00